sensor_id;sensor_type;location;lat;lon;timestamp;temperature;humidity
27741;DHT22;15134;48.768;9.184;2023-04-03T00:00:35;5.70;99.90
27741;DHT22;15134;48.768;9.184;2023-04-03T00:03:00;5.70;99.90
27741;DHT22;15134;48.768;9.184;2023-04-03T00:05:26;5.70;99.90
27741;DHT22;15134;48.768;9.184;2023-04-03T00:07:52;5.70;99.90
27741;DHT22;15134;48.768;9.184;2023-04-03T00:10:18;5.60;99.90
27741;DHT22;15134;48.768;9.184;2023-04-03T00:12:43;5.50;99.90
27741;DHT22;15134;48.768;9.184;2023-04-03T00:15:09;5.60;99.90
27741;DHT22;15134;48.768;9.184;2023-04-03T00:17:35;5.50;99.90
27741;DHT22;15134;48.768;9.184;2023-04-03T00:20:02;5.50;99.90
27741;DHT22;15134;48.768;9.184;2023-04-03T00:22:28;5.50;99.90
27741;DHT22;15134;48.768;9.184;2023-04-03T00:24:55;5.50;99.90
27741;DHT22;15134;48.768;9.184;2023-04-03T00:27:20;5.60;99.90
27741;DHT22;15134;48.768;9.184;2023-04-03T00:29:46;5.60;99.90
27741;DHT22;15134;48.768;9.184;2023-04-03T00:32:12;5.60;99.90
27741;DHT22;15134;48.768;9.184;2023-04-03T00:34:38;5.60;99.90
27741;DHT22;15134;48.768;9.184;2023-04-03T00:37:04;5.70;99.90
27741;DHT22;15134;48.768;9.184;2023-04-03T00:39:30;5.80;99.90
27741;DHT22;15134;48.768;9.184;2023-04-03T00:41:56;5.80;99.90
27741;DHT22;15134;48.768;9.184;2023-04-03T00:46:48;5.90;99.90
27741;DHT22;15134;48.768;9.184;2023-04-03T00:49:14;5.90;99.90
27741;DHT22;15134;48.768;9.184;2023-04-03T00:51:40;5.70;99.90
27741;DHT22;15134;48.768;9.184;2023-04-03T00:54:07;5.70;99.90
27741;DHT22;15134;48.768;9.184;2023-04-03T00:56:33;5.60;99.90
27741;DHT22;15134;48.768;9.184;2023-04-03T00:59:13;5.50;99.90
27741;DHT22;15134;48.768;9.184;2023-04-03T01:01:39;5.50;99.90
27741;DHT22;15134;48.768;9.184;2023-04-03T01:04:06;5.60;99.90
27741;DHT22;15134;48.768;9.184;2023-04-03T01:06:34;5.70;99.90
27741;DHT22;15134;48.768;9.184;2023-04-03T01:09:05;5.70;99.90
27741;DHT22;15134;48.768;9.184;2023-04-03T01:11:31;5.70;99.90
27741;DHT22;15134;48.768;9.184;2023-04-03T01:13:57;5.60;99.90
27741;DHT22;15134;48.768;9.184;2023-04-03T01:16:24;5.60;99.90
27741;DHT22;15134;48.768;9.184;2023-04-03T01:18:50;5.60;99.90
27741;DHT22;15134;48.768;9.184;2023-04-03T01:21:52;5.70;99.90
27741;DHT22;15134;48.768;9.184;2023-04-03T01:24:31;5.80;99.90
27741;DHT22;15134;48.768;9.184;2023-04-03T01:26:58;5.80;99.90
27741;DHT22;15134;48.768;9.184;2023-04-03T01:29:24;5.90;99.90
27741;DHT22;15134;48.768;9.184;2023-04-03T01:34:17;6.00;99.90
27741;DHT22;15134;48.768;9.184;2023-04-03T01:36:43;5.80;99.90
27741;DHT22;15134;48.768;9.184;2023-04-03T01:39:09;5.70;99.90
27741;DHT22;15134;48.768;9.184;2023-04-03T01:41:35;5.60;99.90
27741;DHT22;15134;48.768;9.184;2023-04-03T01:44:10;5.60;99.90
27741;DHT22;15134;48.768;9.184;2023-04-03T01:46:35;5.60;99.90
27741;DHT22;15134;48.768;9.184;2023-04-03T01:49:03;5.50;99.90
27741;DHT22;15134;48.768;9.184;2023-04-03T01:51:30;5.60;99.90
27741;DHT22;15134;48.768;9.184;2023-04-03T01:53:56;5.60;99.90
27741;DHT22;15134;48.768;9.184;2023-04-03T01:56:22;5.70;99.90
27741;DHT22;15134;48.768;9.184;2023-04-03T01:58:48;5.70;99.90
27741;DHT22;15134;48.768;9.184;2023-04-03T02:01:13;5.80;99.90
27741;DHT22;15134;48.768;9.184;2023-04-03T02:03:40;5.80;99.90
27741;DHT22;15134;48.768;9.184;2023-04-03T02:06:06;5.80;99.90
27741;DHT22;15134;48.768;9.184;2023-04-03T02:08:32;5.80;99.90
27741;DHT22;15134;48.768;9.184;2023-04-03T02:10:58;5.80;99.90
27741;DHT22;15134;48.768;9.184;2023-04-03T02:13:24;5.90;99.90
27741;DHT22;15134;48.768;9.184;2023-04-03T02:15:50;5.90;99.90
27741;DHT22;15134;48.768;9.184;2023-04-03T02:18:16;5.80;99.90
27741;DHT22;15134;48.768;9.184;2023-04-03T02:20:42;5.70;99.90
27741;DHT22;15134;48.768;9.184;2023-04-03T02:23:08;5.70;99.90
27741;DHT22;15134;48.768;9.184;2023-04-03T02:25:34;5.70;99.90
27741;DHT22;15134;48.768;9.184;2023-04-03T02:28:00;5.60;99.90
27741;DHT22;15134;48.768;9.184;2023-04-03T02:30:25;5.40;99.90
27741;DHT22;15134;48.768;9.184;2023-04-03T02:32:52;5.40;99.90
27741;DHT22;15134;48.768;9.184;2023-04-03T02:35:18;5.30;99.90
27741;DHT22;15134;48.768;9.184;2023-04-03T02:37:44;5.10;99.90
27741;DHT22;15134;48.768;9.184;2023-04-03T02:40:10;5.20;99.90
27741;DHT22;15134;48.768;9.184;2023-04-03T02:42:37;5.00;99.90
27741;DHT22;15134;48.768;9.184;2023-04-03T02:45:04;5.10;99.90
27741;DHT22;15134;48.768;9.184;2023-04-03T02:47:30;5.20;99.90
27741;DHT22;15134;48.768;9.184;2023-04-03T02:49:55;5.20;99.90
27741;DHT22;15134;48.768;9.184;2023-04-03T02:52:21;5.30;99.90
27741;DHT22;15134;48.768;9.184;2023-04-03T02:54:48;5.30;99.90
27741;DHT22;15134;48.768;9.184;2023-04-03T02:57:14;5.50;99.90
27741;DHT22;15134;48.768;9.184;2023-04-03T02:59:40;5.40;99.90
27741;DHT22;15134;48.768;9.184;2023-04-03T03:02:08;5.50;99.90
27741;DHT22;15134;48.768;9.184;2023-04-03T03:04:34;5.60;99.90
27741;DHT22;15134;48.768;9.184;2023-04-03T03:07:00;5.80;99.90
27741;DHT22;15134;48.768;9.184;2023-04-03T03:09:27;5.80;99.90
27741;DHT22;15134;48.768;9.184;2023-04-03T03:11:55;5.90;99.90
27741;DHT22;15134;48.768;9.184;2023-04-03T03:14:21;5.90;99.90
27741;DHT22;15134;48.768;9.184;2023-04-03T03:16:47;6.00;99.90
27741;DHT22;15134;48.768;9.184;2023-04-03T03:19:13;6.00;99.90
27741;DHT22;15134;48.768;9.184;2023-04-03T03:21:39;5.90;99.90
27741;DHT22;15134;48.768;9.184;2023-04-03T03:24:05;5.70;99.90
27741;DHT22;15134;48.768;9.184;2023-04-03T03:26:32;5.60;99.90
27741;DHT22;15134;48.768;9.184;2023-04-03T03:28:57;5.60;99.90
27741;DHT22;15134;48.768;9.184;2023-04-03T03:31:23;5.50;99.90
27741;DHT22;15134;48.768;9.184;2023-04-03T03:33:49;5.40;99.90
27741;DHT22;15134;48.768;9.184;2023-04-03T03:36:15;5.40;99.90
27741;DHT22;15134;48.768;9.184;2023-04-03T03:38:41;5.30;99.90
27741;DHT22;15134;48.768;9.184;2023-04-03T03:41:08;5.20;99.90
27741;DHT22;15134;48.768;9.184;2023-04-03T03:43:34;5.10;99.90
27741;DHT22;15134;48.768;9.184;2023-04-03T03:46:02;5.10;99.90
27741;DHT22;15134;48.768;9.184;2023-04-03T03:48:28;5.20;99.90
27741;DHT22;15134;48.768;9.184;2023-04-03T03:50:54;5.20;99.90
27741;DHT22;15134;48.768;9.184;2023-04-03T03:53:23;5.20;99.90
27741;DHT22;15134;48.768;9.184;2023-04-03T03:55:52;5.30;99.90
27741;DHT22;15134;48.768;9.184;2023-04-03T03:58:20;5.40;99.90
27741;DHT22;15134;48.768;9.184;2023-04-03T04:00:47;5.40;99.90
27741;DHT22;15134;48.768;9.184;2023-04-03T04:03:12;5.30;99.90
27741;DHT22;15134;48.768;9.184;2023-04-03T04:05:39;5.20;99.90
27741;DHT22;15134;48.768;9.184;2023-04-03T04:08:05;5.00;99.90
27741;DHT22;15134;48.768;9.184;2023-04-03T04:10:32;4.90;99.90
27741;DHT22;15134;48.768;9.184;2023-04-03T04:12:58;4.80;99.90
27741;DHT22;15134;48.768;9.184;2023-04-03T04:15:25;4.80;99.90
27741;DHT22;15134;48.768;9.184;2023-04-03T04:17:53;4.80;99.90
27741;DHT22;15134;48.768;9.184;2023-04-03T04:20:19;4.80;99.90
27741;DHT22;15134;48.768;9.184;2023-04-03T04:22:46;5.00;99.90
27741;DHT22;15134;48.768;9.184;2023-04-03T04:25:12;5.00;99.90
27741;DHT22;15134;48.768;9.184;2023-04-03T04:27:39;5.10;99.90
27741;DHT22;15134;48.768;9.184;2023-04-03T04:30:05;5.00;99.90
27741;DHT22;15134;48.768;9.184;2023-04-03T04:32:32;5.00;99.90
27741;DHT22;15134;48.768;9.184;2023-04-03T04:34:58;4.90;99.90
27741;DHT22;15134;48.768;9.184;2023-04-03T04:37:24;4.80;99.90
27741;DHT22;15134;48.768;9.184;2023-04-03T04:39:51;4.80;99.90
27741;DHT22;15134;48.768;9.184;2023-04-03T04:42:17;4.80;99.90
27741;DHT22;15134;48.768;9.184;2023-04-03T04:44:44;4.70;99.90
27741;DHT22;15134;48.768;9.184;2023-04-03T04:47:12;4.80;99.90
27741;DHT22;15134;48.768;9.184;2023-04-03T04:49:38;4.90;99.90
27741;DHT22;15134;48.768;9.184;2023-04-03T04:52:04;5.00;99.90
27741;DHT22;15134;48.768;9.184;2023-04-03T04:54:31;5.10;99.90
27741;DHT22;15134;48.768;9.184;2023-04-03T04:56:57;5.20;99.90
27741;DHT22;15134;48.768;9.184;2023-04-03T04:59:24;5.20;99.90
27741;DHT22;15134;48.768;9.184;2023-04-03T05:01:51;5.10;99.90
27741;DHT22;15134;48.768;9.184;2023-04-03T05:04:17;5.10;99.90
27741;DHT22;15134;48.768;9.184;2023-04-03T05:06:46;5.20;99.90
27741;DHT22;15134;48.768;9.184;2023-04-03T05:09:16;5.20;99.90
27741;DHT22;15134;48.768;9.184;2023-04-03T05:11:44;5.10;99.90
27741;DHT22;15134;48.768;9.184;2023-04-03T05:14:12;5.10;99.90
27741;DHT22;15134;48.768;9.184;2023-04-03T05:16:38;5.20;99.90
27741;DHT22;15134;48.768;9.184;2023-04-03T05:19:06;5.30;99.90
27741;DHT22;15134;48.768;9.184;2023-04-03T05:21:32;5.10;99.90
27741;DHT22;15134;48.768;9.184;2023-04-03T05:24:01;5.10;99.90
27741;DHT22;15134;48.768;9.184;2023-04-03T05:26:32;5.10;99.90
27741;DHT22;15134;48.768;9.184;2023-04-03T05:28:59;5.10;99.90
27741;DHT22;15134;48.768;9.184;2023-04-03T05:31:25;5.00;99.90
27741;DHT22;15134;48.768;9.184;2023-04-03T05:33:51;5.00;99.90
27741;DHT22;15134;48.768;9.184;2023-04-03T05:36:17;5.10;99.90
27741;DHT22;15134;48.768;9.184;2023-04-03T05:38:47;5.10;99.90
27741;DHT22;15134;48.768;9.184;2023-04-03T05:41:14;4.90;99.90
27741;DHT22;15134;48.768;9.184;2023-04-03T05:43:43;4.90;99.90
27741;DHT22;15134;48.768;9.184;2023-04-03T05:46:12;4.90;99.90
27741;DHT22;15134;48.768;9.184;2023-04-03T05:48:40;4.90;99.90
27741;DHT22;15134;48.768;9.184;2023-04-03T05:51:07;4.90;99.90
27741;DHT22;15134;48.768;9.184;2023-04-03T05:53:36;4.90;99.90
27741;DHT22;15134;48.768;9.184;2023-04-03T05:56:05;4.90;99.90
27741;DHT22;15134;48.768;9.184;2023-04-03T05:58:36;4.90;99.90
27741;DHT22;15134;48.768;9.184;2023-04-03T06:01:03;5.00;99.90
27741;DHT22;15134;48.768;9.184;2023-04-03T06:03:29;5.10;99.90
27741;DHT22;15134;48.768;9.184;2023-04-03T06:05:55;5.30;99.90
27741;DHT22;15134;48.768;9.184;2023-04-03T06:08:21;5.30;99.90
27741;DHT22;15134;48.768;9.184;2023-04-03T06:10:46;5.20;99.90
27741;DHT22;15134;48.768;9.184;2023-04-03T06:13:13;5.30;99.90
27741;DHT22;15134;48.768;9.184;2023-04-03T06:15:39;5.50;99.90
27741;DHT22;15134;48.768;9.184;2023-04-03T06:18:08;5.60;99.90
27741;DHT22;15134;48.768;9.184;2023-04-03T06:20:34;5.60;99.90
27741;DHT22;15134;48.768;9.184;2023-04-03T06:23:00;5.30;99.90
27741;DHT22;15134;48.768;9.184;2023-04-03T06:25:26;5.40;99.90
27741;DHT22;15134;48.768;9.184;2023-04-03T06:27:53;5.40;99.90
27741;DHT22;15134;48.768;9.184;2023-04-03T06:30:21;5.50;99.90
27741;DHT22;15134;48.768;9.184;2023-04-03T06:32:46;5.60;99.90
27741;DHT22;15134;48.768;9.184;2023-04-03T06:35:12;5.50;99.90
27741;DHT22;15134;48.768;9.184;2023-04-03T06:37:38;5.50;99.90
27741;DHT22;15134;48.768;9.184;2023-04-03T06:40:04;5.50;99.90
27741;DHT22;15134;48.768;9.184;2023-04-03T14:30:32;7.60;99.90
27741;DHT22;15134;48.768;9.184;2023-04-03T14:33:02;7.40;99.90
27741;DHT22;15134;48.768;9.184;2023-04-03T14:35:28;7.40;99.90
27741;DHT22;15134;48.768;9.184;2023-04-03T14:37:54;7.60;99.90
27741;DHT22;15134;48.768;9.184;2023-04-03T14:40:26;7.70;99.90
27741;DHT22;15134;48.768;9.184;2023-04-03T14:42:52;7.90;99.90
27741;DHT22;15134;48.768;9.184;2023-04-03T14:45:21;8.10;99.90
27741;DHT22;15134;48.768;9.184;2023-04-03T14:47:49;8.30;99.90
27741;DHT22;15134;48.768;9.184;2023-04-03T14:50:18;8.50;99.90
27741;DHT22;15134;48.768;9.184;2023-04-03T14:52:47;8.20;99.90
27741;DHT22;15134;48.768;9.184;2023-04-03T14:55:19;8.10;99.90
27741;DHT22;15134;48.768;9.184;2023-04-03T14:57:45;7.80;99.90
27741;DHT22;15134;48.768;9.184;2023-04-03T15:00:14;7.70;99.90
27741;DHT22;15134;48.768;9.184;2023-04-03T15:02:40;7.70;99.90
27741;DHT22;15134;48.768;9.184;2023-04-03T15:05:09;7.70;99.90
27741;DHT22;15134;48.768;9.184;2023-04-03T15:07:38;7.70;99.90
27741;DHT22;15134;48.768;9.184;2023-04-03T15:10:18;7.60;99.90
27741;DHT22;15134;48.768;9.184;2023-04-03T15:12:44;7.60;99.90
27741;DHT22;15134;48.768;9.184;2023-04-03T15:15:11;7.60;99.90
27741;DHT22;15134;48.768;9.184;2023-04-03T15:17:37;7.70;99.90
27741;DHT22;15134;48.768;9.184;2023-04-03T15:20:09;7.70;99.90
27741;DHT22;15134;48.768;9.184;2023-04-03T15:22:36;7.70;99.90
27741;DHT22;15134;48.768;9.184;2023-04-03T15:25:02;7.60;99.90
27741;DHT22;15134;48.768;9.184;2023-04-03T15:27:28;7.60;99.90
27741;DHT22;15134;48.768;9.184;2023-04-03T15:29:55;7.60;99.90
27741;DHT22;15134;48.768;9.184;2023-04-03T15:32:20;7.60;99.90
27741;DHT22;15134;48.768;9.184;2023-04-03T15:34:46;7.50;99.90
27741;DHT22;15134;48.768;9.184;2023-04-03T15:37:12;7.30;99.90
27741;DHT22;15134;48.768;9.184;2023-04-03T15:39:38;7.10;99.90
27741;DHT22;15134;48.768;9.184;2023-04-03T15:42:06;7.10;99.90
27741;DHT22;15134;48.768;9.184;2023-04-03T15:44:35;7.00;99.90
27741;DHT22;15134;48.768;9.184;2023-04-03T15:47:01;7.00;99.90
27741;DHT22;15134;48.768;9.184;2023-04-03T15:49:27;7.00;99.90
27741;DHT22;15134;48.768;9.184;2023-04-03T15:51:54;6.90;99.90
27741;DHT22;15134;48.768;9.184;2023-04-03T15:54:20;6.80;99.90
27741;DHT22;15134;48.768;9.184;2023-04-03T15:56:46;6.80;99.90
27741;DHT22;15134;48.768;9.184;2023-04-03T15:59:12;6.90;99.90
27741;DHT22;15134;48.768;9.184;2023-04-03T16:01:38;7.00;99.90
27741;DHT22;15134;48.768;9.184;2023-04-03T16:04:11;7.10;99.90
27741;DHT22;15134;48.768;9.184;2023-04-03T16:06:38;7.20;99.90
27741;DHT22;15134;48.768;9.184;2023-04-03T16:09:06;7.20;99.90
27741;DHT22;15134;48.768;9.184;2023-04-03T16:11:33;7.30;99.90
27741;DHT22;15134;48.768;9.184;2023-04-03T16:14:02;7.30;99.90
27741;DHT22;15134;48.768;9.184;2023-04-03T16:16:29;7.40;99.90
27741;DHT22;15134;48.768;9.184;2023-04-03T16:18:57;7.40;99.90
27741;DHT22;15134;48.768;9.184;2023-04-03T16:21:24;7.20;99.90
27741;DHT22;15134;48.768;9.184;2023-04-03T16:23:50;7.10;99.90
27741;DHT22;15134;48.768;9.184;2023-04-03T16:26:17;6.90;99.90
27741;DHT22;15134;48.768;9.184;2023-04-03T16:28:43;6.90;99.90
27741;DHT22;15134;48.768;9.184;2023-04-03T16:31:09;6.90;99.90
27741;DHT22;15134;48.768;9.184;2023-04-03T16:33:36;7.00;99.90
27741;DHT22;15134;48.768;9.184;2023-04-03T16:36:03;7.00;99.90
27741;DHT22;15134;48.768;9.184;2023-04-03T16:38:30;6.90;99.90
27741;DHT22;15134;48.768;9.184;2023-04-03T16:40:59;6.90;99.90
27741;DHT22;15134;48.768;9.184;2023-04-03T16:43:30;6.90;99.90
27741;DHT22;15134;48.768;9.184;2023-04-03T16:45:56;6.90;99.90
27741;DHT22;15134;48.768;9.184;2023-04-03T16:48:23;6.90;99.90
27741;DHT22;15134;48.768;9.184;2023-04-03T16:50:49;7.00;99.90
27741;DHT22;15134;48.768;9.184;2023-04-03T16:53:23;6.90;99.90
27741;DHT22;15134;48.768;9.184;2023-04-03T16:55:50;7.00;99.90
27741;DHT22;15134;48.768;9.184;2023-04-03T16:58:16;7.00;99.90
27741;DHT22;15134;48.768;9.184;2023-04-03T17:00:42;6.90;99.90
27741;DHT22;15134;48.768;9.184;2023-04-03T17:03:08;7.00;99.90
27741;DHT22;15134;48.768;9.184;2023-04-03T17:05:34;7.00;99.90
27741;DHT22;15134;48.768;9.184;2023-04-03T17:08:01;7.00;99.90
27741;DHT22;15134;48.768;9.184;2023-04-03T17:10:27;7.00;99.90
27741;DHT22;15134;48.768;9.184;2023-04-03T17:12:53;7.00;99.90
27741;DHT22;15134;48.768;9.184;2023-04-03T17:15:20;7.10;99.90
27741;DHT22;15134;48.768;9.184;2023-04-03T17:17:47;7.10;99.90
27741;DHT22;15134;48.768;9.184;2023-04-03T17:20:14;7.00;99.90
27741;DHT22;15134;48.768;9.184;2023-04-03T17:22:41;7.00;99.90
27741;DHT22;15134;48.768;9.184;2023-04-03T17:25:10;6.90;99.90
27741;DHT22;15134;48.768;9.184;2023-04-03T17:27:36;6.90;99.90
27741;DHT22;15134;48.768;9.184;2023-04-03T17:30:04;6.80;99.90
27741;DHT22;15134;48.768;9.184;2023-04-03T17:32:30;6.70;99.90
27741;DHT22;15134;48.768;9.184;2023-04-03T17:34:56;6.60;99.90
27741;DHT22;15134;48.768;9.184;2023-04-03T17:37:22;6.60;99.90
27741;DHT22;15134;48.768;9.184;2023-04-03T17:39:47;6.60;99.90
27741;DHT22;15134;48.768;9.184;2023-04-03T17:42:14;6.50;99.90
27741;DHT22;15134;48.768;9.184;2023-04-03T17:44:43;6.50;99.90
27741;DHT22;15134;48.768;9.184;2023-04-03T17:47:09;6.50;99.90
27741;DHT22;15134;48.768;9.184;2023-04-03T17:49:35;6.40;99.90
27741;DHT22;15134;48.768;9.184;2023-04-03T17:52:01;6.30;99.90
27741;DHT22;15134;48.768;9.184;2023-04-03T17:54:27;6.30;99.90
27741;DHT22;15134;48.768;9.184;2023-04-03T17:56:53;6.30;99.90
27741;DHT22;15134;48.768;9.184;2023-04-03T17:59:19;6.30;99.90
27741;DHT22;15134;48.768;9.184;2023-04-03T18:01:45;6.30;99.90
27741;DHT22;15134;48.768;9.184;2023-04-03T18:04:12;6.30;99.90
27741;DHT22;15134;48.768;9.184;2023-04-03T18:06:45;6.30;99.90
27741;DHT22;15134;48.768;9.184;2023-04-03T18:09:14;6.20;99.90
27741;DHT22;15134;48.768;9.184;2023-04-03T18:11:46;6.20;99.90
27741;DHT22;15134;48.768;9.184;2023-04-03T18:14:15;6.20;99.90
27741;DHT22;15134;48.768;9.184;2023-04-03T18:16:43;6.20;99.90
27741;DHT22;15134;48.768;9.184;2023-04-03T18:19:12;6.10;99.90
27741;DHT22;15134;48.768;9.184;2023-04-03T18:21:38;6.10;99.90
27741;DHT22;15134;48.768;9.184;2023-04-03T18:24:06;6.10;99.90
27741;DHT22;15134;48.768;9.184;2023-04-03T18:26:36;6.00;99.90
27741;DHT22;15134;48.768;9.184;2023-04-03T18:29:03;6.00;99.90
27741;DHT22;15134;48.768;9.184;2023-04-03T18:31:40;6.10;99.90
27741;DHT22;15134;48.768;9.184;2023-04-03T18:34:14;6.10;99.90
27741;DHT22;15134;48.768;9.184;2023-04-03T18:36:39;6.10;99.90
27741;DHT22;15134;48.768;9.184;2023-04-03T18:39:09;6.00;99.90
27741;DHT22;15134;48.768;9.184;2023-04-03T18:41:36;6.00;99.90
27741;DHT22;15134;48.768;9.184;2023-04-03T18:44:04;6.00;99.90
27741;DHT22;15134;48.768;9.184;2023-04-03T18:46:35;6.00;99.90
27741;DHT22;15134;48.768;9.184;2023-04-03T18:49:06;6.00;99.90
27741;DHT22;15134;48.768;9.184;2023-04-03T18:51:33;6.00;99.90
27741;DHT22;15134;48.768;9.184;2023-04-03T18:53:59;5.90;99.90
27741;DHT22;15134;48.768;9.184;2023-04-03T18:56:25;5.80;99.90
27741;DHT22;15134;48.768;9.184;2023-04-03T18:58:53;5.60;99.90
27741;DHT22;15134;48.768;9.184;2023-04-03T19:01:20;5.60;99.90
27741;DHT22;15134;48.768;9.184;2023-04-03T19:03:46;5.60;99.90
27741;DHT22;15134;48.768;9.184;2023-04-03T19:06:12;5.60;99.90
27741;DHT22;15134;48.768;9.184;2023-04-03T19:08:41;5.50;99.90
27741;DHT22;15134;48.768;9.184;2023-04-03T19:11:07;5.40;99.90
27741;DHT22;15134;48.768;9.184;2023-04-03T19:13:33;5.40;99.90
27741;DHT22;15134;48.768;9.184;2023-04-03T19:15:59;5.40;99.90
27741;DHT22;15134;48.768;9.184;2023-04-03T19:18:26;5.40;99.90
27741;DHT22;15134;48.768;9.184;2023-04-03T19:20:54;5.40;99.90
27741;DHT22;15134;48.768;9.184;2023-04-03T19:23:25;5.40;99.90
27741;DHT22;15134;48.768;9.184;2023-04-03T19:26:05;5.50;99.90
27741;DHT22;15134;48.768;9.184;2023-04-03T19:28:32;5.50;99.90
27741;DHT22;15134;48.768;9.184;2023-04-03T19:30:59;5.60;99.90
27741;DHT22;15134;48.768;9.184;2023-04-03T19:33:27;5.60;99.90
27741;DHT22;15134;48.768;9.184;2023-04-03T19:35:53;5.60;99.90
27741;DHT22;15134;48.768;9.184;2023-04-03T19:38:19;5.60;99.90
27741;DHT22;15134;48.768;9.184;2023-04-03T19:40:46;5.60;99.90
27741;DHT22;15134;48.768;9.184;2023-04-03T19:43:13;5.50;99.90
27741;DHT22;15134;48.768;9.184;2023-04-03T19:45:43;5.60;99.90
27741;DHT22;15134;48.768;9.184;2023-04-03T19:48:11;5.60;99.90
27741;DHT22;15134;48.768;9.184;2023-04-03T19:50:37;5.60;99.90
27741;DHT22;15134;48.768;9.184;2023-04-03T19:53:03;5.40;99.90
27741;DHT22;15134;48.768;9.184;2023-04-03T19:55:29;5.30;99.90
27741;DHT22;15134;48.768;9.184;2023-04-03T19:57:56;5.30;99.90
27741;DHT22;15134;48.768;9.184;2023-04-03T20:00:23;5.30;99.90
27741;DHT22;15134;48.768;9.184;2023-04-03T20:02:49;5.30;99.90
27741;DHT22;15134;48.768;9.184;2023-04-03T20:05:18;5.20;99.90
27741;DHT22;15134;48.768;9.184;2023-04-03T20:07:44;5.20;99.90
27741;DHT22;15134;48.768;9.184;2023-04-03T20:10:15;5.10;99.90
27741;DHT22;15134;48.768;9.184;2023-04-03T20:12:42;5.00;99.90
27741;DHT22;15134;48.768;9.184;2023-04-03T20:15:09;5.00;99.90
27741;DHT22;15134;48.768;9.184;2023-04-03T20:17:36;4.90;99.90
27741;DHT22;15134;48.768;9.184;2023-04-03T20:20:04;4.90;99.90
27741;DHT22;15134;48.768;9.184;2023-04-03T20:22:31;4.90;99.90
27741;DHT22;15134;48.768;9.184;2023-04-03T20:25:04;4.80;99.90
27741;DHT22;15134;48.768;9.184;2023-04-03T20:27:32;4.70;99.90
27741;DHT22;15134;48.768;9.184;2023-04-03T20:30:03;4.70;99.90
27741;DHT22;15134;48.768;9.184;2023-04-03T20:32:33;4.70;99.90
27741;DHT22;15134;48.768;9.184;2023-04-03T20:35:02;4.60;99.90
27741;DHT22;15134;48.768;9.184;2023-04-03T20:37:28;4.60;99.90
27741;DHT22;15134;48.768;9.184;2023-04-03T20:39:57;4.60;99.90
27741;DHT22;15134;48.768;9.184;2023-04-03T20:42:24;4.50;99.90
27741;DHT22;15134;48.768;9.184;2023-04-03T20:44:50;4.60;99.90
27741;DHT22;15134;48.768;9.184;2023-04-03T20:47:16;4.50;99.90
27741;DHT22;15134;48.768;9.184;2023-04-03T20:49:43;4.50;99.90
27741;DHT22;15134;48.768;9.184;2023-04-03T20:52:10;4.40;99.90
27741;DHT22;15134;48.768;9.184;2023-04-03T20:54:36;4.30;99.90
27741;DHT22;15134;48.768;9.184;2023-04-03T20:57:03;4.30;99.90
27741;DHT22;15134;48.768;9.184;2023-04-03T20:59:29;4.40;99.90
27741;DHT22;15134;48.768;9.184;2023-04-03T21:01:56;4.40;99.90
27741;DHT22;15134;48.768;9.184;2023-04-03T21:04:40;4.40;99.90
27741;DHT22;15134;48.768;9.184;2023-04-03T21:19:24;4.20;99.90
27741;DHT22;15134;48.768;9.184;2023-04-03T21:22:06;4.10;99.90
27741;DHT22;15134;48.768;9.184;2023-04-03T21:24:41;4.10;99.90
27741;DHT22;15134;48.768;9.184;2023-04-03T21:27:11;4.10;99.90
27741;DHT22;15134;48.768;9.184;2023-04-03T21:29:37;4.00;99.90
27741;DHT22;15134;48.768;9.184;2023-04-03T21:32:04;4.00;99.90
27741;DHT22;15134;48.768;9.184;2023-04-03T21:34:30;3.90;99.90
27741;DHT22;15134;48.768;9.184;2023-04-03T21:37:03;4.00;99.90
27741;DHT22;15134;48.768;9.184;2023-04-03T21:39:30;4.00;99.90
27741;DHT22;15134;48.768;9.184;2023-04-03T21:41:56;4.00;99.90
27741;DHT22;15134;48.768;9.184;2023-04-03T21:44:23;3.90;99.90
27741;DHT22;15134;48.768;9.184;2023-04-03T21:46:49;3.90;99.90
27741;DHT22;15134;48.768;9.184;2023-04-03T21:49:22;3.90;99.90
27741;DHT22;15134;48.768;9.184;2023-04-03T21:51:49;3.90;99.90
27741;DHT22;15134;48.768;9.184;2023-04-03T21:54:16;3.90;99.90
27741;DHT22;15134;48.768;9.184;2023-04-03T21:56:42;3.90;99.90
27741;DHT22;15134;48.768;9.184;2023-04-03T21:59:11;3.80;99.90
27741;DHT22;15134;48.768;9.184;2023-04-03T22:01:38;3.80;99.90
27741;DHT22;15134;48.768;9.184;2023-04-03T22:04:04;3.80;99.90
27741;DHT22;15134;48.768;9.184;2023-04-03T22:06:30;3.80;99.90
27741;DHT22;15134;48.768;9.184;2023-04-03T22:09:00;3.80;99.90
27741;DHT22;15134;48.768;9.184;2023-04-03T22:11:26;3.80;99.90
27741;DHT22;15134;48.768;9.184;2023-04-03T22:13:53;3.80;99.90
27741;DHT22;15134;48.768;9.184;2023-04-03T22:16:25;3.90;99.90
27741;DHT22;15134;48.768;9.184;2023-04-03T22:18:51;3.90;99.90
27741;DHT22;15134;48.768;9.184;2023-04-03T22:21:17;4.00;99.90
27741;DHT22;15134;48.768;9.184;2023-04-03T22:23:43;4.00;99.90
27741;DHT22;15134;48.768;9.184;2023-04-03T22:26:11;4.00;99.90
27741;DHT22;15134;48.768;9.184;2023-04-03T22:28:42;4.00;99.90
27741;DHT22;15134;48.768;9.184;2023-04-03T22:31:08;3.90;99.90
27741;DHT22;15134;48.768;9.184;2023-04-03T22:33:36;3.70;99.90
27741;DHT22;15134;48.768;9.184;2023-04-03T22:36:05;3.70;99.90
27741;DHT22;15134;48.768;9.184;2023-04-03T22:38:31;3.70;99.90
27741;DHT22;15134;48.768;9.184;2023-04-03T22:41:05;3.70;99.90
27741;DHT22;15134;48.768;9.184;2023-04-03T22:43:33;3.60;99.90
27741;DHT22;15134;48.768;9.184;2023-04-03T22:46:03;3.60;99.90
27741;DHT22;15134;48.768;9.184;2023-04-03T22:48:29;3.50;99.90
27741;DHT22;15134;48.768;9.184;2023-04-03T22:50:55;3.40;99.90
27741;DHT22;15134;48.768;9.184;2023-04-03T22:53:21;3.40;99.90
27741;DHT22;15134;48.768;9.184;2023-04-03T22:55:58;3.40;99.90
27741;DHT22;15134;48.768;9.184;2023-04-03T22:58:24;3.40;99.90
27741;DHT22;15134;48.768;9.184;2023-04-03T23:01:11;3.50;99.90
27741;DHT22;15134;48.768;9.184;2023-04-03T23:03:41;3.50;99.90
27741;DHT22;15134;48.768;9.184;2023-04-03T23:06:07;3.50;99.90
27741;DHT22;15134;48.768;9.184;2023-04-03T23:08:34;3.40;99.90
27741;DHT22;15134;48.768;9.184;2023-04-03T23:11:02;3.40;99.90
27741;DHT22;15134;48.768;9.184;2023-04-03T23:13:28;3.20;99.90
27741;DHT22;15134;48.768;9.184;2023-04-03T23:15:55;3.10;99.90
27741;DHT22;15134;48.768;9.184;2023-04-03T23:18:21;3.20;99.90
27741;DHT22;15134;48.768;9.184;2023-04-03T23:20:47;3.20;99.90
27741;DHT22;15134;48.768;9.184;2023-04-03T23:23:22;3.00;99.90
27741;DHT22;15134;48.768;9.184;2023-04-03T23:25:56;2.90;99.90
27741;DHT22;15134;48.768;9.184;2023-04-03T23:28:23;2.90;99.90
27741;DHT22;15134;48.768;9.184;2023-04-03T23:30:49;2.90;99.90
27741;DHT22;15134;48.768;9.184;2023-04-03T23:33:16;2.90;99.90
27741;DHT22;15134;48.768;9.184;2023-04-03T23:35:45;2.90;99.90
27741;DHT22;15134;48.768;9.184;2023-04-03T23:38:16;2.90;99.90
27741;DHT22;15134;48.768;9.184;2023-04-03T23:40:43;2.90;99.90
27741;DHT22;15134;48.768;9.184;2023-04-03T23:43:09;3.00;99.90
27741;DHT22;15134;48.768;9.184;2023-04-03T23:45:35;3.10;99.90
27741;DHT22;15134;48.768;9.184;2023-04-03T23:48:01;3.20;99.90
27741;DHT22;15134;48.768;9.184;2023-04-03T23:50:27;3.20;99.90